createdAt,value
2022-10-16T00:01:29.552Z,22.30
2022-10-16T00:03:58.857Z,22.30
2022-10-16T00:06:28.816Z,22.30
2022-10-16T00:08:56.748Z,22.30
2022-10-16T00:11:27.005Z,22.30
2022-10-16T00:14:01.310Z,22.30
2022-10-16T00:16:30.120Z,22.20
2022-10-16T00:18:59.058Z,22.20
2022-10-16T00:21:29.038Z,22.20
2022-10-16T00:24:00.452Z,22.20
2022-10-16T00:26:30.337Z,22.20
2022-10-16T00:28:58.524Z,22.10
2022-10-16T00:31:28.515Z,22.10
2022-10-16T00:33:56.461Z,22.20
2022-10-16T00:36:27.238Z,22.10
2022-10-16T00:38:57.045Z,22.10
2022-10-16T00:41:26.409Z,22.10
2022-10-16T00:43:56.440Z,22.10
2022-10-16T00:46:28.576Z,22.10
2022-10-16T00:49:01.475Z,22.10
2022-10-16T00:51:34.735Z,22.00
2022-10-16T00:54:04.383Z,22.00
2022-10-16T00:56:34.400Z,22.00
2022-10-16T00:59:05.968Z,22.00
2022-10-16T01:01:35.539Z,22.00
2022-10-16T01:04:03.664Z,22.00
2022-10-16T01:06:41.335Z,22.00
2022-10-16T01:09:19.603Z,21.90
2022-10-16T01:11:56.851Z,21.90
2022-10-16T01:14:31.030Z,21.90
2022-10-16T01:17:06.865Z,21.90
2022-10-16T01:19:52.189Z,21.90
2022-10-16T01:22:26.324Z,21.90
2022-10-16T01:24:57.583Z,21.80
2022-10-16T01:27:30.055Z,21.80
2022-10-16T01:30:03.864Z,21.80
2022-10-16T01:32:37.410Z,21.80
2022-10-16T01:35:11.736Z,21.80
2022-10-16T01:37:43.700Z,21.80
2022-10-16T01:40:14.906Z,21.80
2022-10-16T01:42:48.878Z,21.80
2022-10-16T01:45:20.340Z,21.80
2022-10-16T01:47:50.223Z,21.70
2022-10-16T01:50:21.087Z,21.70
2022-10-16T01:52:53.074Z,21.70
2022-10-16T01:55:26.763Z,21.70
2022-10-16T01:57:58.001Z,21.70
2022-10-16T02:00:26.899Z,21.60
2022-10-16T02:02:56.938Z,21.60
2022-10-16T02:05:30.392Z,21.60
2022-10-16T02:08:00.509Z,21.60
2022-10-16T02:10:32.923Z,21.60
2022-10-16T02:13:04.434Z,21.60
2022-10-16T02:15:32.783Z,21.60
2022-10-16T02:18:01.106Z,21.60
2022-10-16T02:20:31.982Z,21.60
2022-10-16T02:23:01.688Z,21.60
2022-10-16T02:25:32.747Z,21.60
2022-10-16T02:28:08.477Z,21.60
2022-10-16T02:30:41.897Z,21.50
2022-10-16T02:33:15.657Z,21.50
2022-10-16T02:35:45.906Z,21.50
2022-10-16T02:38:15.112Z,21.50
2022-10-16T02:40:43.748Z,21.50
2022-10-16T02:43:13.590Z,21.50
2022-10-16T02:45:42.074Z,21.50
2022-10-16T02:48:10.436Z,21.50
2022-10-16T02:50:38.630Z,21.40
2022-10-16T02:53:06.845Z,21.40
2022-10-16T02:55:35.038Z,21.40
2022-10-16T02:58:03.134Z,21.40
2022-10-16T03:00:32.598Z,21.40
2022-10-16T03:03:00.707Z,21.40
2022-10-16T03:05:28.809Z,21.40
2022-10-16T03:07:56.948Z,21.30
2022-10-16T03:10:25.124Z,21.30
2022-10-16T03:12:53.245Z,21.30
2022-10-16T03:15:21.387Z,21.30
2022-10-16T03:17:50.861Z,21.30
2022-10-16T03:20:19.110Z,21.30
2022-10-16T03:22:47.224Z,21.30
2022-10-16T03:25:15.480Z,21.30
2022-10-16T03:27:43.565Z,21.30
2022-10-16T03:30:12.489Z,21.30
2022-10-16T03:32:40.591Z,21.20
2022-10-16T03:35:10.572Z,21.20
2022-10-16T03:37:38.548Z,21.30
2022-10-16T03:40:07.543Z,21.20
2022-10-16T03:42:35.617Z,21.20
2022-10-16T03:45:03.722Z,21.20
2022-10-16T03:47:34.098Z,21.20
2022-10-16T03:50:02.467Z,21.20
2022-10-16T03:52:33.202Z,21.20
2022-10-16T03:55:01.386Z,21.20
2022-10-16T03:57:29.742Z,21.20
2022-10-16T03:59:58.163Z,21.10
2022-10-16T04:02:26.250Z,21.20
2022-10-16T04:04:54.530Z,21.20
2022-10-16T04:07:22.818Z,21.10
2022-10-16T04:09:53.202Z,21.10
2022-10-16T04:12:21.309Z,21.10
2022-10-16T04:14:49.458Z,21.10
2022-10-16T04:17:17.508Z,21.10
2022-10-16T04:19:45.593Z,21.10
2022-10-16T04:22:13.728Z,21.10
2022-10-16T04:24:42.430Z,21.10
2022-10-16T04:27:11.893Z,21.10
2022-10-16T04:29:39.989Z,21.10
2022-10-16T04:32:09.801Z,21.10
2022-10-16T04:34:39.120Z,21.10
2022-10-16T04:37:07.257Z,21.20
2022-10-16T04:39:35.471Z,21.10
2022-10-16T04:42:03.685Z,20.90
2022-10-16T04:44:33.165Z,20.80
2022-10-16T04:47:01.240Z,20.80
2022-10-16T04:49:29.361Z,20.80
2022-10-16T04:51:57.581Z,20.90
2022-10-16T04:54:25.616Z,20.90
2022-10-16T04:56:53.704Z,21.00
2022-10-16T04:59:22.214Z,21.10
2022-10-16T05:01:51.752Z,21.10
2022-10-16T05:04:19.790Z,21.20
2022-10-16T05:06:47.984Z,21.20
2022-10-16T05:09:16.059Z,21.20
2022-10-16T05:11:44.182Z,21.20
2022-10-16T05:14:12.371Z,21.20
2022-10-16T05:16:40.526Z,21.20
2022-10-16T05:19:39.834Z,21.20
2022-10-16T05:21:58.446Z,21.00
2022-10-16T05:24:26.560Z,20.80
2022-10-16T05:26:54.942Z,20.80
2022-10-16T05:29:23.277Z,20.80
2022-10-16T05:31:53.758Z,20.80
2022-10-16T05:34:23.522Z,20.90
2022-10-16T05:36:51.665Z,21.00
2022-10-16T05:39:19.966Z,21.00
2022-10-16T05:41:48.332Z,21.00
2022-10-16T05:44:16.631Z,21.10
2022-10-16T05:46:44.703Z,21.10
2022-10-16T05:49:12.759Z,21.10
2022-10-16T05:51:42.800Z,21.10
2022-10-16T05:54:11.170Z,21.10
2022-10-16T05:56:39.361Z,21.10
2022-10-16T05:59:07.860Z,21.10
2022-10-16T06:01:36.355Z,21.10
2022-10-16T06:04:04.860Z,21.20
2022-10-16T06:06:33.054Z,21.20
2022-10-16T06:09:02.571Z,21.20
2022-10-16T06:11:33.327Z,21.20
2022-10-16T06:14:07.551Z,21.20
2022-10-16T06:16:36.333Z,21.20
2022-10-16T06:19:07.396Z,21.20
2022-10-16T06:21:35.937Z,21.10
2022-10-16T06:24:05.684Z,21.10
2022-10-16T06:26:34.191Z,21.10
2022-10-16T06:29:02.936Z,21.00
2022-10-16T06:31:34.509Z,21.00
2022-10-16T06:34:05.742Z,21.00
2022-10-16T06:36:34.270Z,21.00
2022-10-16T06:39:02.347Z,21.00
2022-10-16T06:41:32.992Z,21.10
2022-10-16T06:44:01.164Z,21.20
2022-10-16T06:46:29.420Z,21.20
2022-10-16T06:48:57.520Z,21.20
2022-10-16T06:51:26.455Z,21.20
2022-10-16T06:54:04.976Z,21.20
2022-10-16T06:56:39.386Z,21.20
2022-10-16T06:59:07.621Z,21.10
2022-10-16T07:01:37.391Z,21.10
2022-10-16T07:04:05.517Z,21.20
2022-10-16T07:06:35.442Z,21.20
2022-10-16T07:09:05.011Z,21.20
2022-10-16T07:11:34.909Z,21.30
2022-10-16T07:14:02.773Z,21.40
2022-10-16T07:16:32.412Z,21.60
2022-10-16T07:19:02.330Z,21.60
2022-10-16T07:21:31.201Z,21.60
2022-10-16T07:24:02.371Z,21.50
2022-10-16T07:26:32.300Z,21.50
2022-10-16T07:29:02.011Z,21.60
2022-10-16T07:31:30.253Z,21.60
2022-10-16T07:34:00.604Z,21.70
2022-10-16T07:36:29.018Z,21.80
2022-10-16T07:38:59.829Z,22.00
2022-10-16T07:41:29.377Z,22.00
2022-10-16T07:44:01.023Z,22.30
2022-10-16T07:46:31.089Z,22.70
2022-10-16T07:48:58.984Z,23.00
2022-10-16T07:51:28.209Z,23.20
2022-10-16T07:53:56.391Z,23.30
2022-10-16T07:56:24.966Z,23.20
2022-10-16T07:58:53.931Z,23.20
2022-10-16T08:01:22.355Z,23.10
2022-10-16T08:03:53.206Z,23.00
2022-10-16T08:06:26.766Z,22.90
2022-10-16T08:08:56.500Z,22.80
2022-10-16T08:11:25.257Z,22.70
2022-10-16T08:13:53.406Z,22.70
2022-10-16T08:16:21.807Z,22.80
2022-10-16T08:18:52.430Z,22.90
2022-10-16T08:21:22.688Z,23.50
2022-10-16T08:23:54.831Z,24.00
2022-10-16T08:26:27.263Z,24.50
2022-10-16T08:28:56.144Z,24.70
2022-10-16T08:31:24.509Z,24.90
2022-10-16T08:33:53.944Z,25.40
2022-10-16T08:36:22.240Z,25.70
2022-10-16T08:38:51.712Z,25.90
2022-10-16T08:41:50.976Z,26.10
2022-10-16T08:44:38.026Z,26.50
2022-10-16T08:47:15.277Z,26.70
2022-10-16T08:49:54.716Z,27.00
2022-10-16T08:52:22.847Z,27.40
2022-10-16T08:54:59.038Z,27.50
2022-10-16T08:57:28.557Z,27.80
2022-10-16T09:00:01.683Z,28.20
2022-10-16T09:02:35.198Z,28.50
2022-10-16T09:05:33.877Z,28.90
2022-10-16T09:08:13.185Z,29.30
2022-10-16T09:10:52.188Z,29.70
2022-10-16T09:13:28.383Z,30.10
2022-10-16T09:16:03.490Z,30.50
2022-10-16T09:18:39.047Z,31.00
2022-10-16T09:21:16.395Z,31.40
2022-10-16T09:23:44.559Z,31.80
2022-10-16T09:26:15.515Z,31.70
2022-10-16T09:28:44.040Z,31.90
2022-10-16T09:31:19.065Z,32.20
2022-10-16T09:33:52.546Z,32.70
2022-10-16T09:36:24.012Z,32.90
2022-10-16T09:38:54.898Z,33.30
2022-10-16T09:41:26.236Z,33.70
2022-10-16T09:43:57.861Z,34.10
2022-10-16T09:46:30.713Z,34.50
2022-10-16T09:49:01.419Z,34.90
2022-10-16T09:51:33.088Z,35.20
2022-10-16T09:54:03.388Z,35.50
2022-10-16T09:56:34.536Z,35.80
2022-10-16T09:59:05.560Z,36.10
2022-10-16T10:01:39.614Z,36.40
2022-10-16T10:04:08.731Z,36.80
2022-10-16T10:06:42.981Z,37.10
2022-10-16T10:09:21.210Z,37.40
2022-10-16T10:11:55.239Z,37.70
2022-10-16T10:14:37.292Z,38.00
2022-10-16T10:17:14.058Z,38.20
2022-10-16T10:19:44.434Z,38.40
2022-10-16T10:22:27.354Z,38.60
2022-10-16T10:25:01.441Z,38.80
2022-10-16T10:27:41.550Z,39.00
2022-10-16T10:30:20.458Z,39.20
2022-10-16T10:33:04.119Z,39.50
2022-10-16T10:35:41.014Z,39.20
2022-10-16T10:38:27.141Z,39.00
2022-10-16T10:41:07.789Z,38.10
2022-10-16T10:43:47.242Z,38.00
2022-10-16T10:46:24.647Z,38.00
2022-10-16T10:49:07.614Z,38.20
2022-10-16T10:51:44.749Z,39.40
2022-10-16T10:54:22.900Z,40.70
2022-10-16T10:56:59.581Z,41.70
2022-10-16T10:59:57.474Z,41.40
2022-10-16T11:02:33.882Z,42.00
2022-10-16T11:05:25.299Z,42.80
2022-10-16T11:07:59.356Z,43.50
2022-10-16T11:10:36.237Z,44.00
2022-10-16T11:13:18.230Z,44.30
2022-10-16T11:18:28.561Z,44.70
2022-10-16T11:21:00.811Z,44.80
2022-10-16T11:23:32.909Z,45.00
2022-10-16T11:26:08.352Z,45.10
2022-10-16T11:28:42.206Z,45.20
2022-10-16T11:31:16.169Z,45.30
2022-10-16T11:33:49.468Z,45.40
2022-10-16T11:36:22.762Z,45.50
2022-10-16T11:38:57.424Z,45.10
2022-10-16T11:41:34.146Z,44.20
2022-10-16T11:44:16.566Z,43.50
2022-10-16T11:47:08.815Z,43.90
2022-10-16T11:49:43.987Z,44.50
2022-10-16T11:52:19.379Z,45.00
2022-10-16T11:54:52.652Z,45.30
2022-10-16T11:57:26.238Z,45.50
2022-10-16T11:59:59.877Z,45.70
2022-10-16T12:02:46.541Z,45.90
2022-10-16T12:05:24.869Z,46.00
2022-10-16T12:08:03.887Z,46.10
2022-10-16T12:13:37.262Z,46.10
2022-10-16T12:16:22.518Z,46.00
2022-10-16T12:18:51.521Z,46.00
2022-10-16T12:21:20.360Z,46.00
2022-10-16T12:23:53.246Z,46.00
2022-10-16T12:26:28.859Z,46.10
2022-10-16T12:29:17.010Z,46.20
2022-10-16T12:31:54.809Z,46.00
2022-10-16T12:34:30.454Z,46.00
2022-10-16T12:37:11.497Z,45.80
2022-10-16T12:39:39.860Z,45.50
2022-10-16T12:42:25.444Z,45.40
2022-10-16T12:44:55.942Z,45.40
2022-10-16T12:47:25.785Z,45.50
2022-10-16T12:49:55.918Z,45.60
2022-10-16T12:52:30.147Z,45.50
2022-10-16T12:55:01.827Z,45.20
2022-10-16T12:57:43.517Z,45.20
2022-10-16T13:00:23.134Z,45.10
2022-10-16T13:03:10.333Z,45.30
2022-10-16T13:05:53.486Z,45.30
2022-10-16T13:08:35.444Z,45.10
2022-10-16T13:11:10.360Z,45.10
2022-10-16T13:14:07.574Z,45.00
2022-10-16T13:16:47.464Z,45.10
2022-10-16T13:19:26.883Z,45.20
2022-10-16T13:22:03.547Z,45.30
2022-10-16T13:24:49.233Z,45.20
2022-10-16T13:27:28.004Z,45.20
2022-10-16T13:30:04.745Z,45.30
2022-10-16T13:32:34.261Z,45.60
2022-10-16T13:35:03.122Z,45.60
2022-10-16T13:37:31.193Z,45.00
2022-10-16T13:40:19.933Z,44.70
2022-10-16T13:42:48.033Z,44.40
2022-10-16T13:45:23.515Z,44.20
2022-10-16T13:48:03.242Z,45.00
2022-10-16T13:50:31.377Z,45.40
2022-10-16T13:53:06.931Z,45.80
2022-10-16T13:55:35.593Z,46.00
2022-10-16T13:58:12.965Z,46.30
2022-10-16T14:00:41.783Z,46.90
2022-10-16T14:03:16.846Z,47.50
2022-10-16T14:05:51.178Z,47.60
2022-10-16T14:08:19.522Z,47.80
2022-10-16T14:10:51.556Z,48.10
2022-10-16T14:13:23.749Z,48.20
2022-10-16T14:15:55.256Z,48.40
2022-10-16T14:18:29.833Z,48.50
2022-10-16T14:21:06.648Z,48.60
2022-10-16T14:23:38.341Z,48.70
2022-10-16T14:26:25.556Z,48.80
2022-10-16T14:29:12.645Z,48.90
2022-10-16T14:31:40.849Z,48.70
2022-10-16T14:34:23.549Z,48.20
2022-10-16T14:36:53.129Z,48.10
2022-10-16T14:39:23.689Z,48.20
2022-10-16T14:41:53.496Z,47.80
2022-10-16T14:44:25.641Z,47.10
2022-10-16T14:46:53.725Z,46.30
2022-10-16T14:49:23.933Z,45.60
2022-10-16T14:51:53.636Z,45.40
2022-10-16T14:54:21.821Z,45.60
2022-10-16T14:56:51.745Z,45.80
2022-10-16T14:59:24.273Z,45.90
2022-10-16T15:01:52.535Z,46.00
2022-10-16T15:04:20.600Z,46.20
2022-10-16T15:06:48.698Z,46.10
2022-10-16T15:09:18.304Z,45.70
2022-10-16T15:11:47.339Z,45.50
2022-10-16T15:16:48.621Z,44.20
2022-10-16T15:19:16.693Z,43.60
2022-10-16T15:21:45.437Z,43.00
2022-10-16T15:24:17.872Z,42.60
2022-10-16T15:26:50.872Z,42.10
2022-10-16T15:29:18.980Z,41.40
2022-10-16T15:31:48.580Z,39.60
2022-10-16T15:34:17.205Z,38.00
2022-10-16T15:36:45.280Z,37.00
2022-10-16T15:39:17.026Z,36.30
2022-10-16T15:41:48.899Z,35.80
2022-10-16T15:44:18.533Z,35.30
2022-10-16T15:46:46.612Z,34.90
2022-10-16T15:49:14.956Z,34.50
2022-10-16T15:51:43.815Z,34.20
2022-10-16T15:54:12.132Z,33.80
2022-10-16T15:56:40.197Z,33.50
2022-10-16T15:59:08.469Z,33.50
2022-10-16T16:01:38.298Z,33.30
2022-10-16T16:04:15.416Z,33.00
2022-10-16T16:06:53.971Z,32.60
2022-10-16T16:09:22.020Z,32.30
2022-10-16T16:11:52.243Z,32.00
2022-10-16T16:14:20.340Z,31.70
2022-10-16T16:16:50.015Z,31.50
2022-10-16T16:19:21.842Z,31.20
2022-10-16T16:21:50.273Z,31.10
2022-10-16T16:24:18.538Z,30.80
2022-10-16T16:26:46.637Z,30.70
2022-10-16T16:29:16.273Z,30.50
2022-10-16T16:31:45.166Z,30.40
2022-10-16T16:34:14.790Z,30.50
2022-10-16T16:36:43.009Z,30.70
2022-10-16T16:39:11.639Z,30.80
2022-10-16T16:41:39.692Z,30.60
2022-10-16T16:44:10.471Z,30.30
2022-10-16T16:46:40.458Z,30.10
2022-10-16T16:49:08.850Z,29.90
2022-10-16T16:51:40.529Z,29.70
2022-10-16T16:54:09.642Z,29.50
2022-10-16T16:56:38.193Z,29.40
2022-10-16T16:59:06.431Z,29.30
2022-10-16T17:01:34.478Z,29.10
2022-10-16T17:04:03.329Z,29.00
2022-10-16T17:06:31.646Z,28.90
2022-10-16T17:09:03.642Z,28.80
2022-10-16T17:11:32.484Z,28.70
2022-10-16T17:14:01.635Z,28.70
2022-10-16T17:16:31.857Z,28.60
2022-10-16T17:19:02.340Z,28.60
2022-10-16T17:21:32.942Z,28.50
2022-10-16T17:24:02.908Z,28.50
2022-10-16T17:26:31.603Z,28.40
2022-10-16T17:29:01.539Z,28.50
2022-10-16T17:31:32.016Z,28.50
2022-10-16T17:34:01.086Z,28.50
2022-10-16T17:36:31.526Z,28.70
2022-10-16T17:39:01.743Z,27.10
2022-10-16T17:41:31.466Z,26.80
2022-10-16T17:43:59.739Z,26.70
2022-10-16T17:46:28.677Z,26.70
2022-10-16T17:48:57.115Z,26.70
2022-10-16T17:51:27.952Z,26.80
2022-10-16T17:53:58.709Z,27.00
2022-10-16T17:56:27.774Z,27.10
2022-10-16T17:58:59.893Z,27.30
2022-10-16T18:01:29.771Z,27.40
2022-10-16T18:03:59.943Z,27.50
2022-10-16T18:06:29.088Z,27.60
2022-10-16T18:08:59.154Z,27.60
2022-10-16T18:11:28.326Z,27.70
2022-10-16T18:13:58.760Z,27.70
2022-10-16T18:16:28.222Z,27.80
2022-10-16T18:18:58.099Z,27.80
2022-10-16T18:21:28.317Z,27.80
2022-10-16T18:23:56.899Z,27.80
2022-10-16T18:26:25.937Z,27.80
2022-10-16T18:28:55.161Z,27.90
2022-10-16T18:31:26.232Z,27.90
2022-10-16T18:33:55.649Z,27.90
2022-10-16T18:36:26.720Z,28.00
2022-10-16T18:38:55.428Z,28.40
2022-10-16T18:41:24.043Z,28.70
2022-10-16T18:43:52.194Z,28.50
2022-10-16T18:46:22.023Z,27.70
2022-10-16T18:48:52.322Z,27.10
2022-10-16T18:51:27.386Z,26.70
2022-10-16T18:53:57.042Z,26.40
2022-10-16T18:56:25.424Z,26.30
2022-10-16T18:58:54.377Z,26.00
2022-10-16T19:01:24.665Z,25.90
2022-10-16T19:03:58.841Z,25.70
2022-10-16T19:06:28.008Z,25.60
2022-10-16T19:08:56.886Z,25.50
2022-10-16T19:11:26.665Z,25.40
2022-10-16T19:13:55.708Z,25.40
2022-10-16T19:16:26.284Z,25.30
2022-10-16T19:18:57.726Z,25.20
2022-10-16T19:21:27.463Z,25.10
2022-10-16T19:23:56.561Z,25.10
2022-10-16T19:26:26.213Z,25.00
2022-10-16T19:28:55.915Z,24.90
2022-10-16T19:31:24.712Z,24.90
2022-10-16T19:33:53.766Z,24.80
2022-10-16T19:36:25.784Z,24.70
2022-10-16T19:38:55.529Z,24.70
2022-10-16T19:41:25.366Z,24.60
2022-10-16T19:43:54.073Z,24.60
2022-10-16T19:46:24.422Z,24.50
2022-10-16T19:48:56.277Z,24.50
2022-10-16T19:51:26.521Z,24.40
2022-10-16T19:53:56.976Z,24.30
2022-10-16T19:56:26.839Z,24.30
2022-10-16T19:58:55.380Z,24.20
2022-10-16T20:01:24.824Z,24.10
2022-10-16T20:03:53.288Z,24.10
2022-10-16T20:06:22.256Z,24.00
2022-10-16T20:08:53.444Z,23.90
2022-10-16T20:11:23.877Z,23.90
2022-10-16T20:13:52.641Z,23.90
2022-10-16T20:16:21.300Z,23.80
2022-10-16T20:18:50.992Z,23.80
2022-10-16T20:21:21.025Z,23.70
2022-10-16T20:23:50.970Z,23.70
2022-10-16T20:26:22.270Z,23.60
2022-10-16T20:28:50.720Z,23.90
2022-10-16T20:31:22.733Z,24.30
2022-10-16T20:33:51.363Z,24.60
2022-10-16T20:36:20.857Z,24.80
2022-10-16T20:38:49.066Z,25.00
2022-10-16T20:41:18.624Z,25.20
2022-10-16T20:43:50.083Z,25.30
2022-10-16T20:46:20.383Z,25.30
2022-10-16T20:48:48.551Z,25.40
2022-10-16T20:51:18.975Z,25.40
2022-10-16T20:53:48.404Z,25.50
2022-10-16T20:56:17.577Z,25.50
2022-10-16T20:58:47.508Z,25.60
2022-10-16T21:01:17.055Z,25.60
2022-10-16T21:03:46.006Z,25.60
2022-10-16T21:06:14.081Z,25.70
2022-10-16T21:08:44.341Z,25.70
2022-10-16T21:11:13.723Z,25.70
2022-10-16T21:13:42.476Z,25.70
2022-10-16T21:16:13.363Z,25.70
2022-10-16T21:18:44.600Z,25.70
2022-10-16T21:21:21.073Z,25.70
2022-10-16T21:23:49.785Z,25.70
2022-10-16T21:26:18.929Z,25.80
2022-10-16T21:28:47.178Z,25.70
2022-10-16T21:31:18.995Z,25.70
2022-10-16T21:33:47.782Z,25.70
2022-10-16T21:36:17.943Z,25.70
2022-10-16T21:41:21.976Z,25.70
2022-10-16T21:43:51.067Z,25.70
2022-10-16T21:46:23.066Z,25.70
2022-10-16T21:48:53.913Z,25.70
2022-10-16T21:51:22.000Z,25.70
2022-10-16T21:53:50.093Z,25.70
2022-10-16T21:56:19.296Z,25.70
2022-10-16T21:58:47.601Z,25.70
2022-10-16T22:01:17.614Z,25.70
2022-10-16T22:03:47.932Z,25.70
2022-10-16T22:06:18.263Z,25.70
2022-10-16T22:08:47.864Z,25.70
2022-10-16T22:11:22.192Z,25.70
2022-10-16T22:13:54.041Z,25.60
2022-10-16T22:16:26.142Z,25.70
2022-10-16T22:18:57.223Z,25.70
2022-10-16T22:21:25.835Z,25.70
2022-10-16T22:23:54.140Z,25.70
2022-10-16T22:26:22.693Z,25.60
2022-10-16T22:28:50.876Z,25.60
2022-10-16T22:31:19.212Z,25.60
2022-10-16T22:33:47.275Z,25.60
2022-10-16T22:36:16.881Z,25.60
2022-10-16T22:38:44.948Z,25.50
2022-10-16T22:41:14.725Z,25.50
2022-10-16T22:43:44.191Z,25.50
2022-10-16T22:46:14.547Z,25.50
2022-10-16T22:48:42.974Z,25.50
2022-10-16T22:51:16.545Z,25.40
2022-10-16T22:53:47.976Z,25.40
2022-10-16T22:56:17.718Z,25.40
2022-10-16T22:58:46.233Z,25.40
2022-10-16T23:01:16.476Z,25.40
2022-10-16T23:03:44.755Z,25.30
2022-10-16T23:06:12.849Z,25.30
2022-10-16T23:08:41.049Z,25.30
2022-10-16T23:11:12.475Z,25.30
2022-10-16T23:13:45.055Z,25.30
2022-10-16T23:16:15.144Z,25.30
2022-10-16T23:18:43.964Z,25.30
2022-10-16T23:21:14.971Z,25.20
2022-10-16T23:23:44.502Z,25.20
2022-10-16T23:26:16.375Z,25.20
2022-10-16T23:28:44.786Z,25.20
2022-10-16T23:31:14.313Z,25.10
2022-10-16T23:33:42.819Z,25.20
2022-10-16T23:36:16.196Z,25.10
2022-10-16T23:38:44.473Z,25.10
2022-10-16T23:41:14.799Z,25.10
2022-10-16T23:43:43.203Z,25.10
2022-10-16T23:46:12.675Z,25.10
2022-10-16T23:48:41.340Z,25.00
2022-10-16T23:51:10.078Z,25.00
2022-10-16T23:53:38.773Z,25.00
2022-10-16T23:56:07.268Z,25.00
2022-10-16T23:58:37.191Z,24.90
